Time;durP1;ratioP1;P1;durP2;ratioP2;P2;SDS_P1;SDS_P2;PMS_P1;PMS_P2;Temp;Humidity;BMP_temperature;BMP_pressure;BME280_temperature;BME280_humidity;BME280_pressure;Samples;Min_cycle;Max_cycle;Signal;HPM_P1;HPM_P2
2022/06/29 00:02:16;;;;;;;8.70;7.93;;;17.10;99.90;;;;;;5002435;28;20244;-95
2022/06/29 00:04:45;;;;;;;8.17;7.67;;;17.10;99.90;;;;;;4984361;28;20436;-92
2022/06/29 00:07:10;;;;;;;9.10;8.30;;;17.40;99.90;;;;;;4981958;28;20440;-94
2022/06/29 00:09:39;;;;;;;8.83;8.03;;;17.20;99.90;;;;;;4982238;28;20424;-93
2022/06/29 00:12:10;;;;;;;9.27;8.67;;;17.20;99.90;;;;;;4981363;28;20201;-93
2022/06/29 00:14:41;;;;;;;8.97;8.10;;;17.10;99.90;;;;;;4986256;28;20436;-92
2022/06/29 00:17:08;;;;;;;7.97;7.47;;;17.10;99.90;;;;;;4977470;28;20201;-91
2022/06/29 00:19:39;;;;;;;8.90;8.20;;;17.10;99.90;;;;;;4981822;28;20467;-92
2022/06/29 00:22:11;;;;;;;9.00;8.40;;;17.10;99.90;;;;;;4974913;28;20476;-93
2022/06/29 00:24:36;;;;;;;8.23;7.53;;;17.20;99.90;;;;;;4978575;28;20524;-94
2022/06/29 00:27:02;;;;;;;8.83;8.27;;;17.00;99.90;;;;;;4981534;28;20450;-93
2022/06/29 00:29:28;;;;;;;9.47;8.77;;;17.10;99.90;;;;;;4982186;28;20193;-94
2022/06/29 00:31:54;;;;;;;8.60;7.90;;;17.50;99.90;;;;;;4980152;28;20441;-93
2022/06/29 00:34:20;;;;;;;10.20;9.17;;;16.80;99.90;;;;;;4979794;28;20587;-93
2022/06/29 00:36:46;;;;;;;10.30;9.60;;;16.80;99.90;;;;;;4981310;28;20448;-93
2022/06/29 00:39:11;;;;;;;10.20;9.40;;;17.20;99.90;;;;;;4975925;28;20854;-94
2022/06/29 00:41:41;;;;;;;11.00;10.20;;;16.70;99.90;;;;;;4984011;28;20213;-93
2022/06/29 00:44:11;;;;;;;9.97;9.10;;;16.80;99.90;;;;;;4982491;28;20192;-93
2022/06/29 00:46:47;;;;;;;9.90;9.10;;;16.80;99.90;;;;;;4979980;28;20495;-93
2022/06/29 00:49:16;;;;;;;10.90;10.00;;;16.70;99.90;;;;;;4981624;28;20449;-93
2022/06/29 00:52:03;;;;;;;9.23;8.53;;;16.80;99.90;;;;;;4978885;28;20433;-93
2022/06/29 00:54:40;;;;;;;9.80;9.00;;;16.70;99.90;;;;;;4983597;28;20444;-92
2022/06/29 00:57:15;;;;;;;9.87;9.07;;;16.80;99.90;;;;;;4985624;28;20512;-92
2022/06/29 00:59:47;;;;;;;9.37;8.67;;;16.80;99.90;;;;;;4987403;28;20460;-95
2022/06/29 01:02:15;;;;;;;9.20;8.50;;;16.70;99.90;;;;;;4985294;28;20482;-93
2022/06/29 01:04:41;;;;;;;9.17;8.57;;;16.60;99.90;;;;;;4987028;28;20778;-92
2022/06/29 01:07:07;;;;;;;9.90;8.90;;;16.70;99.90;;;;;;4986467;28;20944;-92
2022/06/29 01:09:33;;;;;;;9.53;8.87;;;16.70;99.90;;;;;;4983210;28;20432;-92
2022/06/29 01:11:59;;;;;;;8.67;7.97;;;16.60;99.90;;;;;;4986728;28;20949;-93
2022/06/29 01:14:25;;;;;;;8.80;7.90;;;16.70;99.90;;;;;;4986797;28;20429;-91
2022/06/29 01:17:23;;;;;;;8.40;7.77;;;16.60;99.90;;;;;;4988904;28;20240;-93
2022/06/29 01:19:50;;;;;;;8.63;8.00;;;16.70;99.90;;;;;;4985271;28;20453;-93
2022/06/29 01:22:17;;;;;;;10.47;8.60;;;17.00;99.90;;;;;;4987643;28;20563;-94
2022/06/29 01:24:44;;;;;;;9.07;8.27;;;16.60;99.90;;;;;;5007590;28;20656;-95
2022/06/29 01:27:11;;;;;;;10.00;9.30;;;16.60;99.90;;;;;;5007350;28;20440;-91
2022/06/29 01:29:37;;;;;;;10.97;10.17;;;16.50;99.90;;;;;;5010012;28;20433;-91
2022/06/29 01:32:03;;;;;;;10.00;9.23;;;16.50;99.90;;;;;;4994318;28;20479;-93
2022/06/29 01:34:33;;;;;;;10.80;9.70;;;16.70;99.90;;;;;;4978549;28;20653;-92
2022/06/29 01:36:59;;;;;;;11.17;10.07;;;16.60;99.90;;;;;;4979531;28;20536;-92
2022/06/29 01:39:25;;;;;;;11.23;9.87;;;16.90;99.90;;;;;;5001358;28;20437;-93
2022/06/29 01:41:51;;;;;;;9.90;9.20;;;16.60;99.90;;;;;;4984811;28;20556;-93
2022/06/29 01:44:17;;;;;;;10.23;9.43;;;16.80;99.90;;;;;;4986963;28;20507;-93
2022/06/29 01:46:51;;;;;;;10.30;9.50;;;16.70;99.90;;;;;;4982176;28;20189;-91
2022/06/29 01:49:17;;;;;;;9.67;8.97;;;16.60;99.90;;;;;;4999721;28;20457;-91
2022/06/29 01:51:42;;;;;;;10.30;9.57;;;16.60;99.90;;;;;;5007013;28;20448;-93
2022/06/29 01:54:08;;;;;;;10.10;9.40;;;17.50;99.90;;;;;;4991883;28;20706;-93
2022/06/29 01:56:34;;;;;;;10.77;9.97;;;16.60;99.90;;;;;;4984735;28;20194;-94
2022/06/29 01:59:00;;;;;;;9.80;9.10;;;16.50;99.90;;;;;;4997765;28;20452;-92
2022/06/29 02:01:25;;;;;;;10.77;9.80;;;16.30;99.90;;;;;;4982012;28;20189;-94
2022/06/29 02:03:51;;;;;;;10.30;9.57;;;16.30;99.90;;;;;;4983295;28;20204;-93
2022/06/29 02:06:18;;;;;;;10.40;9.67;;;16.30;99.90;;;;;;4982969;28;20186;-92
2022/06/29 02:08:47;;;;;;;9.67;8.87;;;16.30;99.90;;;;;;4979541;28;20585;-93
2022/06/29 02:11:13;;;;;;;10.00;9.30;;;16.20;99.90;;;;;;4985204;28;20441;-94
2022/06/29 02:13:38;;;;;;;10.10;9.40;;;16.30;99.90;;;;;;4978615;28;20805;-94
2022/06/29 02:16:07;;;;;;;10.10;9.30;;;16.20;99.90;;;;;;4981953;28;20818;-94
2022/06/29 02:18:33;;;;;;;10.33;9.53;;;16.10;99.90;;;;;;4976959;28;20257;-94
2022/06/29 02:20:58;;;;;;;10.87;10.07;;;16.30;99.90;;;;;;4982267;28;20552;-93
2022/06/29 02:23:24;;;;;;;10.10;9.40;;;16.20;99.90;;;;;;4976914;28;20528;-94
2022/06/29 02:25:49;;;;;;;10.77;9.80;;;16.30;99.90;;;;;;4983642;28;20301;-94
2022/06/29 02:28:15;;;;;;;11.00;10.20;;;16.50;99.90;;;;;;4981163;28;20185;-93
2022/06/29 02:36:09;;;;;;;10.87;10.17;;;16.40;99.90;;;;;;4975695;28;20448;-93
2022/06/29 02:38:35;;;;;;;10.20;9.30;;;16.80;99.90;;;;;;4973225;28;20449;-92
2022/06/29 02:41:01;;;;;;;11.13;10.23;;;16.40;99.90;;;;;;4979972;28;20215;-94
2022/06/29 02:43:27;;;;;;;11.60;10.70;;;16.40;99.90;;;;;;4984657;28;20241;-93
2022/06/29 02:45:52;;;;;;;11.80;10.50;;;17.00;99.90;;;;;;4984355;28;20451;-95
2022/06/29 02:48:18;;;;;;;10.70;9.90;;;16.50;99.90;;;;;;4979167;28;20701;-94
2022/06/29 02:50:44;;;;;;;11.87;10.77;;;16.30;99.90;;;;;;4995109;28;20936;-96
2022/06/29 02:53:11;;;;;;;12.57;11.77;;;16.40;99.90;;;;;;4980319;28;21027;-94
2022/06/29 02:55:37;;;;;;;10.63;9.73;;;16.30;99.90;;;;;;4982362;28;20182;-94
2022/06/29 02:58:02;;;;;;;10.13;9.43;;;16.40;99.90;;;;;;4984025;28;21013;-95
2022/06/29 03:00:28;;;;;;;10.80;10.00;;;16.30;99.90;;;;;;4983301;28;20193;-94
2022/06/29 03:02:54;;;;;;;11.40;10.40;;;16.30;99.90;;;;;;4980179;28;20229;-93
2022/06/29 03:05:21;;;;;;;10.60;9.70;;;16.40;99.90;;;;;;4984211;28;20975;-92
2022/06/29 03:07:46;;;;;;;11.20;10.40;;;16.50;99.90;;;;;;4979738;28;20443;-92
2022/06/29 03:10:12;;;;;;;10.40;9.70;;;16.40;99.90;;;;;;4983892;28;20272;-93
2022/06/29 03:12:37;;;;;;;11.10;10.20;;;16.30;99.90;;;;;;4982691;28;20806;-93
2022/06/29 03:15:04;;;;;;;11.07;10.07;;;16.20;99.90;;;;;;4977340;28;20193;-93
2022/06/29 03:17:30;;;;;;;9.87;9.17;;;16.10;99.90;;;;;;4973761;28;20312;-93
2022/06/29 03:19:55;;;;;;;10.00;9.30;;;16.10;99.90;;;;;;4980911;28;20449;-92
2022/06/29 03:22:20;;;;;;;10.20;9.40;;;15.90;99.90;;;;;;4976303;28;20218;-93
2022/06/29 03:24:46;;;;;;;9.27;8.57;;;15.90;99.90;;;;;;4979473;28;20221;-92
2022/06/29 03:27:12;;;;;;;9.43;8.73;;;15.80;99.90;;;;;;4978170;28;20193;-92
2022/06/29 03:29:37;;;;;;;9.33;8.53;;;16.20;99.90;;;;;;4979637;28;20181;-92
2022/06/29 03:32:03;;;;;;;10.67;9.87;;;15.60;99.90;;;;;;4979105;28;20185;-92
2022/06/29 03:34:28;;;;;;;10.60;9.80;;;15.80;99.90;;;;;;4980428;28;20185;-92
2022/06/29 03:36:54;;;;;;;10.57;9.57;;;15.80;99.90;;;;;;4978527;28;20479;-92
2022/06/29 03:39:19;;;;;;;10.43;9.60;;;15.70;99.90;;;;;;4981529;28;20174;-91
2022/06/29 03:41:45;;;;;;;11.13;10.30;;;15.30;99.90;;;;;;4980302;28;20791;-90
2022/06/29 03:44:10;;;;;;;13.97;10.30;;;15.70;99.90;;;;;;4981540;28;20190;-92
2022/06/29 03:46:36;;;;;;;9.97;9.27;;;15.70;99.90;;;;;;4976540;28;20189;-91
2022/06/29 03:49:02;;;;;;;10.87;9.87;;;15.60;99.90;;;;;;4979523;28;20555;-93
2022/06/29 03:51:27;;;;;;;11.50;10.60;;;15.70;99.90;;;;;;4981264;28;20276;-93
2022/06/29 03:53:53;;;;;;;11.87;10.97;;;15.60;99.90;;;;;;4977817;28;20190;-92
2022/06/29 03:56:19;;;;;;;12.10;11.10;;;15.70;99.90;;;;;;4981261;28;22108;-93
2022/06/29 03:58:45;;;;;;;13.00;11.90;;;16.10;99.90;;;;;;4978186;28;20305;-93
2022/06/29 04:01:11;;;;;;;12.67;11.57;;;15.70;99.90;;;;;;4974349;28;20523;-92
2022/06/29 04:03:36;;;;;;;11.50;10.50;;;16.00;99.90;;;;;;4976245;28;20232;-90
2022/06/29 04:06:02;;;;;;;12.47;11.57;;;16.30;99.90;;;;;;4992164;28;20196;-92
2022/06/29 04:08:28;;;;;;;12.30;11.30;;;15.90;99.90;;;;;;4980418;28;20188;-91
2022/06/29 04:10:53;;;;;;;12.90;11.80;;;15.80;99.90;;;;;;4979284;28;20674;-92
2022/06/29 04:13:19;;;;;;;12.50;11.53;;;16.20;99.90;;;;;;4981167;28;20227;-93
2022/06/29 04:15:44;;;;;;;13.40;12.30;;;15.80;99.90;;;;;;4976034;28;20186;-91
2022/06/29 04:18:10;;;;;;;13.63;12.43;;;15.80;99.90;;;;;;4980937;28;20212;-92
2022/06/29 04:23:24;;;;;;;12.93;12.00;;;16.00;99.90;;;;;;4976976;28;20638;-91
2022/06/29 04:25:50;;;;;;;12.67;11.67;;;16.00;99.90;;;;;;4979784;28;21855;-92
2022/06/29 04:28:18;;;;;;;13.40;12.30;;;15.90;99.90;;;;;;4982662;28;20425;-91
2022/06/29 04:30:46;;;;;;;13.80;12.60;;;15.90;99.90;;;;;;4983970;28;20538;-91
2022/06/29 04:33:14;;;;;;;13.70;12.57;;;16.20;99.90;;;;;;4975039;28;20445;-91
2022/06/29 04:35:51;;;;;;;13.30;11.93;;;16.10;99.90;;;;;;4985023;28;20185;-93
2022/06/29 04:38:17;;;;;;;13.30;12.30;;;16.10;99.90;;;;;;4995116;28;20535;-94
2022/06/29 04:40:42;;;;;;;12.63;11.47;;;16.00;99.90;;;;;;4982999;28;20892;-91
2022/06/29 04:43:08;;;;;;;18.60;12.27;;;15.80;99.90;;;;;;4977564;28;20576;-92
2022/06/29 04:48:21;;;;;;;13.43;12.40;;;16.00;99.90;;;;;;4986849;28;20192;-93
2022/06/29 04:50:49;;;;;;;14.10;13.00;;;16.00;99.90;;;;;;4983687;28;20448;-92
2022/06/29 04:53:15;;;;;;;12.23;11.33;;;16.00;99.90;;;;;;5010325;28;20503;-92
2022/06/29 04:55:40;;;;;;;13.60;12.17;;;16.00;99.90;;;;;;5005838;28;20457;-93
2022/06/29 04:58:06;;;;;;;11.67;10.77;;;16.50;99.90;;;;;;4995324;28;20670;-93
2022/06/29 05:00:33;;;;;;;13.33;12.07;;;16.10;99.90;;;;;;4984110;28;20513;-91
2022/06/29 05:02:59;;;;;;;13.40;12.37;;;16.20;99.90;;;;;;4977349;28;20216;-91
2022/06/29 05:05:24;;;;;;;11.70;10.63;;;16.10;99.90;;;;;;4982089;28;20531;-92
2022/06/29 05:07:50;;;;;;;13.37;12.17;;;16.00;99.90;;;;;;4975321;28;20201;-92
2022/06/29 05:10:16;;;;;;;12.93;12.03;;;16.10;99.90;;;;;;4977645;28;20257;-92
2022/06/29 05:12:42;;;;;;;12.73;11.83;;;16.50;99.90;;;;;;4975639;28;20197;-92
2022/06/29 05:15:08;;;;;;;12.60;11.60;;;16.10;99.90;;;;;;4973178;28;20652;-93
2022/06/29 05:17:36;;;;;;;12.13;11.03;;;16.30;99.90;;;;;;4980202;28;20868;-92
2022/06/29 05:20:46;;;;;;;12.47;11.57;;;16.30;99.90;;;;;;4983051;28;20957;-93
2022/06/29 05:23:30;;;;;;;12.73;11.63;;;16.90;99.90;;;;;;4989827;28;20476;-93
2022/06/29 06:06:19;;;;;;;14.10;12.90;;;16.60;99.90;;;;;;5256304;23;20476;-96
2022/06/29 07:38:09;;;;;;;10.10;9.20;;;20.20;99.90;;;;;;4979044;28;20464;-89
2022/06/29 07:40:36;;;;;;;9.97;9.27;;;20.40;99.90;;;;;;4991285;28;20446;-88
2022/06/29 07:43:03;;;;;;;9.63;8.83;;;20.80;99.90;;;;;;4988566;28;20824;-88
2022/06/29 07:45:28;;;;;;;9.70;8.70;;;20.90;99.90;;;;;;4986758;28;20441;-89
2022/06/29 07:47:54;;;;;;;8.80;8.20;;;21.00;99.90;;;;;;4984041;28;20451;-88
2022/06/29 07:50:20;;;;;;;10.17;9.47;;;21.10;99.90;;;;;;4982761;28;20216;-89
2022/06/29 07:53:06;;;;;;;9.07;8.40;;;21.20;99.90;;;;;;4980686;28;20244;-89
2022/06/29 07:55:32;;;;;;;9.47;8.57;;;21.30;99.90;;;;;;4983940;28;20436;-87
2022/06/29 07:57:58;;;;;;;9.47;8.77;;;21.40;99.90;;;;;;4980865;28;20801;-89
2022/06/29 08:00:24;;;;;;;11.80;8.50;;;21.70;99.90;;;;;;4986969;28;20245;-89
2022/06/29 08:02:56;;;;;;;9.57;8.80;;;21.60;99.90;;;;;;4995398;28;20228;-89
2022/06/29 08:05:22;;;;;;;9.00;8.40;;;22.00;99.90;;;;;;4993255;28;20454;-89
2022/06/29 08:07:49;;;;;;;9.03;8.43;;;22.00;99.90;;;;;;4986528;28;20532;-91
2022/06/29 08:10:15;;;;;;;8.70;7.90;;;22.20;99.90;;;;;;4973719;28;20455;-89
2022/06/29 08:12:41;;;;;;;9.23;8.53;;;21.90;99.90;;;;;;4986534;28;20876;-88
2022/06/29 08:15:07;;;;;;;8.37;7.80;;;22.00;99.90;;;;;;4986816;28;20440;-89
2022/06/29 08:17:33;;;;;;;8.80;8.10;;;22.00;99.90;;;;;;4990466;28;20276;-90
2022/06/29 08:19:59;;;;;;;8.07;7.50;;;22.20;99.90;;;;;;4987030;28;20435;-90
2022/06/29 08:22:24;;;;;;;7.77;7.37;;;22.10;99.90;;;;;;4989284;28;20484;-89
2022/06/29 08:24:53;;;;;;;8.10;7.60;;;22.20;99.90;;;;;;4986744;28;20311;-92
2022/06/29 08:27:22;;;;;;;8.17;7.67;;;22.50;99.90;;;;;;4986136;28;20553;-90
2022/06/29 08:29:49;;;;;;;9.87;9.10;;;22.50;99.90;;;;;;4990478;28;20453;-91
2022/06/29 08:32:14;;;;;;;8.60;8.00;;;23.10;99.90;;;;;;4983200;28;20453;-89
2022/06/29 08:34:40;;;;;;;7.97;7.40;;;23.10;99.90;;;;;;4978334;28;20456;-93
2022/06/29 08:37:06;;;;;;;9.07;8.30;;;23.10;99.90;;;;;;4989514;28;20280;-91
2022/06/29 08:39:33;;;;;;;8.53;8.03;;;23.50;99.90;;;;;;4978239;28;20185;-91
2022/06/29 08:42:04;;;;;;;10.47;9.67;;;23.40;99.90;;;;;;4993521;28;20471;-91
2022/06/29 08:44:36;;;;;;;8.80;8.20;;;23.30;99.90;;;;;;4985122;28;20448;-90
2022/06/29 08:47:03;;;;;;;9.63;9.03;;;23.40;99.90;;;;;;4992528;28;20436;-91
2022/06/29 08:49:30;;;;;;;9.80;9.10;;;23.10;99.90;;;;;;4991743;28;20452;-91
2022/06/29 08:51:57;;;;;;;9.20;8.47;;;22.90;99.90;;;;;;4985542;28;20511;-92
2022/06/29 08:54:31;;;;;;;9.10;8.50;;;23.00;99.90;;;;;;4980520;28;20448;-89
2022/06/29 08:56:58;;;;;;;8.33;7.73;;;23.00;99.90;;;;;;4988635;28;20437;-88
2022/06/29 09:00:09;;;;;;;8.40;7.90;;;23.30;99.90;;;;;;4982740;28;21871;-89
2022/06/29 09:02:41;;;;;;;8.70;8.10;;;23.80;99.90;;;;;;4964519;28;20512;-87
2022/06/29 09:05:07;;;;;;;9.03;8.50;;;24.00;99.90;;;;;;4977403;28;20432;-88
2022/06/29 09:07:41;;;;;;;9.77;9.07;;;24.00;99.90;;;;;;4991735;28;20535;-88
2022/06/29 09:10:30;;;;;;;8.30;7.70;;;24.00;99.90;;;;;;5000830;28;20475;-96
2022/06/29 09:23:48;;;;;;;8.13;7.53;;;24.80;99.90;;;;;;4954963;28;20572;-94
2022/06/29 09:26:37;;;;;;;9.07;8.47;;;24.50;99.90;;;;;;4966430;28;20441;-96
2022/06/29 09:32:18;;;;;;;10.00;9.30;;;24.10;99.90;;;;;;5014173;23;20483;-86
2022/06/29 09:34:50;;;;;;;8.63;8.03;;;23.90;99.90;;;;;;4985007;28;20440;-90
2022/06/29 09:37:18;;;;;;;9.47;8.83;;;23.70;99.90;;;;;;5008445;28;20440;-87
2022/06/29 09:39:51;;;;;;;8.73;8.13;;;23.40;99.90;;;;;;5003446;28;20768;-91
2022/06/29 09:42:22;;;;;;;8.40;7.80;;;24.10;99.90;;;;;;4996688;28;20475;-91
2022/06/29 09:44:48;;;;;;;8.03;7.30;;;24.90;99.90;;;;;;5009219;28;20489;-93
2022/06/29 09:47:16;;;;;;;8.53;7.87;;;24.50;99.90;;;;;;4997767;28;20444;-90
2022/06/29 09:50:04;;;;;;;8.10;7.50;;;25.20;99.90;;;;;;5001385;28;20472;-90
2022/06/29 09:52:32;;;;;;;8.40;7.70;;;25.20;99.90;;;;;;5003167;28;20444;-90
2022/06/29 09:55:11;;;;;;;8.30;7.70;;;25.70;99.90;;;;;;4995356;28;20434;-90
2022/06/29 09:57:38;;;;;;;8.87;8.17;;;25.20;99.90;;;;;;5000476;28;20443;-89
2022/06/29 10:02:54;;;;;;;6.43;6.03;;;25.00;99.90;;;;;;4998818;28;20549;-96
2022/06/29 10:05:21;;;;;;;7.23;6.67;;;24.50;99.90;;;;;;4996374;28;20452;-92
2022/06/29 10:07:52;;;;;;;7.00;6.40;;;24.00;99.90;;;;;;4996134;28;20452;-94
2022/06/29 10:10:20;;;;;;;7.87;7.30;;;25.20;99.90;;;;;;4999586;28;20486;-92
2022/06/29 10:15:32;;;;;;;7.73;7.23;;;25.80;99.90;;;;;;4997759;28;20914;-95
2022/06/29 10:18:22;;;;;;;8.37;7.70;;;26.60;99.90;;;;;;5001555;28;20448;-93
2022/06/29 10:20:49;;;;;;;8.30;7.60;;;26.50;99.90;;;;;;5014604;28;20185;-94
2022/06/29 10:23:44;;;;;;;8.07;7.57;;;27.00;99.90;;;;;;5007381;28;21398;-91
2022/06/29 10:26:32;;;;;;;7.40;6.70;;;27.50;99.90;;;;;;5022525;28;20449;-92
2022/06/29 10:29:19;;;;;;;7.40;6.90;;;28.00;99.90;;;;;;5003674;28;20802;-94
2022/06/29 10:31:56;;;;;;;6.70;6.27;;;27.60;99.90;;;;;;5005657;28;20838;-93
2022/06/29 10:34:31;;;;;;;8.00;7.00;;;26.70;99.90;;;;;;5002139;28;20436;-96
2022/06/29 10:37:04;;;;;;;7.13;6.53;;;26.30;99.90;;;;;;5003728;28;20820;-94
2022/06/29 10:39:59;;;;;;;7.90;7.20;;;25.90;99.90;;;;;;5017235;28;20805;-96
2022/06/29 10:45:16;;;;;;;8.40;7.03;;;25.00;99.90;;;;;;5007558;28;20864;-95
2022/06/29 10:47:54;;;;;;;6.93;6.43;;;24.90;99.90;;;;;;5010670;28;20420;-96
2022/06/29 10:50:20;;;;;;;7.07;6.43;;;25.00;99.90;;;;;;5021878;28;20407;-96
2022/06/29 10:52:46;;;;;;;7.17;6.50;;;24.90;99.90;;;;;;5007247;28;20436;-96
2022/06/29 10:55:13;;;;;;;6.20;5.80;;;26.10;99.90;;;;;;5006713;28;20530;-96
2022/06/29 10:57:44;;;;;;;6.67;6.03;;;25.70;99.90;;;;;;5000011;28;20779;-96
2022/06/29 11:00:15;;;;;;;7.13;6.53;;;25.70;99.90;;;;;;5020821;28;20436;-96
2022/06/29 11:02:43;;;;;;;8.33;6.67;;;26.20;99.90;;;;;;5002405;28;20988;-95
2022/06/29 11:05:09;;;;;;;8.07;7.40;;;27.80;99.90;;;;;;5004422;28;20432;-95
2022/06/29 11:13:07;;;;;;;8.37;7.77;;;25.80;99.90;;;;;;5030543;28;20459;-95
2022/06/29 11:15:41;;;;;;;7.57;6.97;;;25.80;99.90;;;;;;5020099;28;20459;-93
2022/06/29 11:18:12;;;;;;;7.10;6.40;;;25.60;99.90;;;;;;5018124;28;20185;-95
2022/06/29 11:20:38;;;;;;;6.77;6.27;;;25.50;99.90;;;;;;5011347;28;20897;-95
2022/06/29 11:23:14;;;;;;;7.70;7.20;;;24.80;99.90;;;;;;5005927;28;20557;-93
2022/06/29 11:25:46;;;;;;;6.90;6.40;;;24.70;99.90;;;;;;5009601;28;20541;-96
2022/06/29 11:28:37;;;;;;;6.70;6.27;;;25.00;99.90;;;;;;5009089;28;20428;-96
2022/06/29 11:31:05;;;;;;;7.10;6.70;;;25.90;99.90;;;;;;5018258;28;20478;-94
2022/06/29 11:33:44;;;;;;;7.30;6.70;;;25.00;99.90;;;;;;5003068;28;20440;-93
2022/06/29 11:36:15;;;;;;;7.27;6.60;;;26.50;99.90;;;;;;5002267;28;20450;-95
2022/06/29 11:38:56;;;;;;;7.13;6.67;;;26.40;99.90;;;;;;4999886;28;20451;-94
2022/06/29 11:43:03;;;;;;;6.30;5.80;;;28.60;99.90;;;;;;5002747;28;20436;-96
2022/06/29 11:44:24;;;;;;;8.17;7.37;;;28.00;99.90;;;;;;4994477;28;20959;-95
2022/06/29 11:46:56;;;;;;;6.60;6.00;;;27.30;99.90;;;;;;5000351;28;20443;-95
2022/06/29 11:49:36;;;;;;;8.00;7.23;;;28.80;99.90;;;;;;4998832;28;20952;-95
2022/06/29 11:52:08;;;;;;;7.87;7.17;;;30.00;99.90;;;;;;5004109;28;20462;-94
2022/06/29 11:57:58;;;;;;;7.43;6.83;;;28.50;98.70;;;;;;4969575;28;20477;-92
2022/06/29 12:00:33;;;;;;;6.40;5.90;;;26.90;99.90;;;;;;4961732;28;20532;-91
2022/06/29 12:03:00;;;;;;;7.30;6.80;;;27.80;99.90;;;;;;4976421;28;20569;-94
2022/06/29 12:05:26;;;;;;;7.00;6.30;;;27.60;99.90;;;;;;4954242;28;20477;-92
2022/06/29 12:07:52;;;;;;;8.57;7.87;;;27.90;99.90;;;;;;4960093;28;20539;-92
2022/06/29 12:10:18;;;;;;;6.53;5.83;;;28.10;99.90;;;;;;4956749;28;20186;-95
2022/06/29 12:12:43;;;;;;;6.77;6.17;;;27.90;99.90;;;;;;4957868;28;20994;-91
2022/06/29 12:15:14;;;;;;;6.27;5.73;;;28.20;99.90;;;;;;4958836;28;20190;-91
2022/06/29 12:17:39;;;;;;;7.97;7.37;;;27.90;99.10;;;;;;4954230;28;20186;-92
2022/06/29 12:20:08;;;;;;;8.00;7.20;;;28.20;99.90;;;;;;4954619;28;20537;-91
2022/06/29 12:22:34;;;;;;;7.57;6.90;;;28.20;99.90;;;;;;4955745;28;21430;-92
2022/06/29 12:25:00;;;;;;;7.47;6.73;;;28.00;99.90;;;;;;4971245;28;21089;-95
2022/06/29 12:27:39;;;;;;;6.57;6.00;;;27.60;99.90;;;;;;4957415;28;20441;-92
2022/06/29 12:30:06;;;;;;;7.00;6.40;;;27.40;99.90;;;;;;4964680;28;20446;-91
2022/06/29 12:32:32;;;;;;;10.33;7.87;;;27.00;99.90;;;;;;4957567;28;20229;-94
2022/06/29 12:34:58;;;;;;;7.40;6.70;;;27.30;99.90;;;;;;4976428;28;20807;-93
2022/06/29 12:37:24;;;;;;;7.23;6.67;;;28.40;99.90;;;;;;4976300;28;20187;-92
2022/06/29 12:39:53;;;;;;;6.97;6.47;;;28.10;99.90;;;;;;4974317;28;20838;-92
2022/06/29 12:42:21;;;;;;;7.70;6.90;;;28.60;99.90;;;;;;4974569;28;20206;-92
2022/06/29 12:44:48;;;;;;;7.60;7.07;;;29.90;99.90;;;;;;4964003;28;20453;-93
2022/06/29 12:47:13;;;;;;;8.43;7.33;;;30.70;99.40;;;;;;4965783;28;20429;-91
2022/06/29 12:49:39;;;;;;;6.90;6.43;;;31.50;99.50;;;;;;4977570;28;20756;-95
2022/06/29 12:52:05;;;;;;;7.33;6.60;;;30.40;97.60;;;;;;4972068;28;20269;-93
2022/06/29 12:54:31;;;;;;;6.90;6.30;;;30.30;98.60;;;;;;4969423;28;20707;-93
2022/06/29 12:57:00;;;;;;;7.70;7.00;;;29.70;98.10;;;;;;4984015;28;20709;-96
2022/06/29 12:59:26;;;;;;;7.20;6.60;;;29.00;98.50;;;;;;5001560;28;20445;-96
2022/06/29 13:01:52;;;;;;;6.90;6.40;;;28.30;97.40;;;;;;4979103;28;20435;-96
2022/06/29 13:04:19;;;;;;;7.33;6.83;;;27.90;99.80;;;;;;5139056;23;20495;-95
2022/06/29 13:06:55;;;;;;;7.63;7.03;;;27.30;99.90;;;;;;4999531;28;20232;-95
2022/06/29 13:11:55;;;;;;;8.80;8.07;;;27.70;98.00;;;;;;4947254;28;20472;-92
2022/06/29 13:14:20;;;;;;;6.93;6.33;;;28.80;99.10;;;;;;4926634;29;20458;-92
2022/06/29 13:22:01;;;;;;;6.43;5.93;;;28.70;96.00;;;;;;5221861;23;20516;-96
2022/06/29 13:24:28;;;;;;;7.10;6.47;;;29.40;96.00;;;;;;4971279;28;20458;-94
2022/06/29 13:26:54;;;;;;;7.13;6.60;;;30.00;94.20;;;;;;4955300;28;20277;-94
2022/06/29 13:29:20;;;;;;;6.93;6.43;;;30.40;93.80;;;;;;4981472;28;20521;-92
2022/06/29 13:31:46;;;;;;;7.27;6.60;;;30.40;92.90;;;;;;4964523;28;20444;-91
2022/06/29 13:34:12;;;;;;;7.20;6.70;;;30.40;93.80;;;;;;4964428;28;20800;-88
2022/06/29 13:36:38;;;;;;;6.40;5.80;;;30.40;94.20;;;;;;4957901;28;20190;-90
2022/06/29 13:39:04;;;;;;;6.10;5.70;;;30.70;92.60;;;;;;4969789;28;20446;-91
2022/06/29 13:41:29;;;;;;;5.83;5.43;;;30.30;92.30;;;;;;4963020;28;20178;-89
2022/06/29 13:43:55;;;;;;;7.93;7.23;;;30.00;92.40;;;;;;4964936;28;20230;-90
2022/06/29 13:46:20;;;;;;;7.07;6.47;;;30.40;93.70;;;;;;4967723;28;20912;-90
2022/06/29 13:48:46;;;;;;;7.43;6.87;;;29.30;95.10;;;;;;4967952;28;20261;-90
2022/06/29 13:51:11;;;;;;;7.43;6.83;;;29.30;95.80;;;;;;4967343;28;20174;-89
2022/06/29 13:53:38;;;;;;;7.30;6.70;;;29.00;95.70;;;;;;4965217;28;20540;-90
2022/06/29 13:56:04;;;;;;;7.77;7.17;;;29.60;96.70;;;;;;4969622;28;20360;-90
2022/06/29 13:58:29;;;;;;;7.23;6.63;;;31.40;96.00;;;;;;4971118;28;20437;-91
2022/06/29 14:00:55;;;;;;;6.70;6.20;;;31.40;93.00;;;;;;4968079;28;21002;-90
2022/06/29 14:03:20;;;;;;;6.67;6.20;;;33.30;91.80;;;;;;4965337;28;20222;-90
2022/06/29 14:05:46;;;;;;;6.83;6.43;;;34.40;89.40;;;;;;4965163;28;20192;-90
2022/06/29 14:08:11;;;;;;;6.83;6.10;;;33.60;86.80;;;;;;4967312;28;20177;-93
2022/06/29 14:10:37;;;;;;;6.30;5.90;;;34.00;84.30;;;;;;4972242;28;20174;-92
2022/06/29 14:13:02;;;;;;;6.77;6.27;;;34.40;85.40;;;;;;4968871;28;20185;-92
2022/06/29 14:15:28;;;;;;;6.30;5.80;;;34.30;83.50;;;;;;4969229;28;20543;-93
2022/06/29 14:17:54;;;;;;;7.47;6.77;;;32.80;86.60;;;;;;4959392;28;20193;-90
2022/06/29 14:20:19;;;;;;;6.00;5.60;;;30.80;90.60;;;;;;4968110;28;20213;-92
2022/06/29 14:22:45;;;;;;;6.33;5.83;;;29.50;92.50;;;;;;4963468;28;20236;-91
2022/06/29 14:25:11;;;;;;;7.47;6.70;;;31.70;91.30;;;;;;4985207;28;20205;-91
2022/06/29 14:27:37;;;;;;;6.70;6.20;;;32.50;90.10;;;;;;4992638;28;20182;-91
2022/06/29 14:30:04;;;;;;;6.77;6.27;;;32.20;89.20;;;;;;4976704;28;20205;-89
2022/06/29 14:32:32;;;;;;;6.77;6.20;;;33.00;86.30;;;;;;4976165;28;20269;-94
2022/06/29 14:35:16;;;;;;;6.10;5.60;;;33.40;84.50;;;;;;4969035;28;21002;-93
2022/06/29 14:37:41;;;;;;;7.87;6.33;;;33.20;88.30;;;;;;4964181;28;20950;-92
2022/06/29 14:40:08;;;;;;;5.40;5.00;;;35.30;86.70;;;;;;4967563;28;20432;-92
2022/06/29 14:42:35;;;;;;;6.30;5.80;;;37.90;77.70;;;;;;4969010;28;20205;-90
2022/06/29 14:45:02;;;;;;;6.30;5.70;;;39.60;71.90;;;;;;4967718;28;20182;-93
2022/06/29 14:47:33;;;;;;;5.53;5.03;;;39.00;65.10;;;;;;4965827;28;20548;-93
2022/06/29 14:49:58;;;;;;;6.23;5.73;;;36.50;69.60;;;;;;4969839;28;20488;-93
2022/06/29 14:52:24;;;;;;;5.67;5.17;;;35.40;76.00;;;;;;4965373;28;20446;-92
2022/06/29 14:54:54;;;;;;;6.40;6.00;;;37.10;74.40;;;;;;4967287;28;20796;-91
2022/06/29 14:57:23;;;;;;;5.70;5.30;;;38.80;71.90;;;;;;4972659;28;20201;-90
2022/06/29 14:59:49;;;;;;;6.43;5.90;;;38.20;68.10;;;;;;4966556;28;20187;-89
2022/06/29 15:02:15;;;;;;;5.17;4.67;;;34.80;74.70;;;;;;4953991;28;20567;-89
2022/06/29 15:04:41;;;;;;;6.33;5.80;;;36.50;74.00;;;;;;4958585;28;20570;-91
2022/06/29 15:07:06;;;;;;;5.33;4.93;;;39.00;69.70;;;;;;4953556;28;20184;-89
2022/06/29 15:09:33;;;;;;;5.20;4.83;;;38.10;65.50;;;;;;4954559;28;20209;-91
2022/06/29 15:11:59;;;;;;;4.80;4.50;;;39.00;65.60;;;;;;4959377;28;20544;-89
2022/06/29 15:14:36;;;;;;;5.17;4.77;;;38.90;64.30;;;;;;4957159;28;20190;-92
2022/06/29 15:17:02;;;;;;;4.60;4.20;;;40.80;61.60;;;;;;4958969;28;20186;-95
2022/06/29 15:19:28;;;;;;;4.50;4.23;;;39.20;60.30;;;;;;4958181;28;20200;-94
2022/06/29 15:21:54;;;;;;;5.63;5.23;;;37.30;64.60;;;;;;4962360;28;20189;-91
2022/06/29 15:24:19;;;;;;;4.70;4.40;;;35.30;70.70;;;;;;4959928;28;20254;-91
2022/06/29 15:26:45;;;;;;;4.90;4.50;;;37.90;66.80;;;;;;4959946;28;20528;-87
2022/06/29 15:29:10;;;;;;;5.20;4.77;;;38.50;66.70;;;;;;4959994;28;20185;-91
2022/06/29 15:31:38;;;;;;;4.53;4.23;;;40.30;66.20;;;;;;4954544;28;20185;-93
2022/06/29 15:39:33;;;;;;;5.53;5.10;;;35.20;72.20;;;;;;4968238;28;20216;-96
2022/06/29 15:42:14;;;;;;;5.60;5.10;;;38.50;70.20;;;;;;4976993;28;20193;-92
2022/06/29 15:44:42;;;;;;;5.20;4.70;;;34.50;68.00;;;;;;4966843;28;20450;-93
2022/06/29 15:47:08;;;;;;;5.53;4.87;;;34.50;72.80;;;;;;4962699;28;21180;-95
2022/06/29 15:49:34;;;;;;;5.97;5.17;;;36.80;69.90;;;;;;4955705;28;20967;-95
2022/06/29 15:51:59;;;;;;;5.90;5.40;;;35.60;69.20;;;;;;4971936;28;20438;-95
2022/06/29 15:57:09;;;;;;;6.23;5.70;;;35.60;66.40;;;;;;4968663;28;20192;-96
2022/06/29 15:59:34;;;;;;;6.37;5.77;;;33.70;69.50;;;;;;4972276;28;20536;-96